Terminal Aerodrome Forecast
Issued by NWS Des Moines, IA

Home | Current Version | Previous Version | Text Only | Print | Product List | Glossary On
Versions: 1 2 3 4 5 6 7 8 9 10 11 12 13 14 15 16 17 18 19 20 21 22 23
000
FTUS43 KDMX 241129
TAFDSM
TAF
KDSM 241129Z 2412/2512 29006KT P6SM OVC008
     FM241600 29005KT P6SM BKN013
     FM242000 24005KT P6SM SCT027
     FM250400 17005KT P6SM SCT050=

USA.gov is the U.S. government's official web portal to all federal, state and local government web resources and services.